sensor_id;sensor_type;location;lat;lon;timestamp;pressure;altitude;pressure_sealevel;temperature;humidity
58092;BME280;43896;48.178;11.578;2023-04-27T00:01:09;95899.22;;;9.39;56.53
58092;BME280;43896;48.178;11.578;2023-04-27T00:03:35;95887.88;;;9.38;56.88
58092;BME280;43896;48.178;11.578;2023-04-27T00:06:00;95890.22;;;9.42;55.94
58092;BME280;43896;48.178;11.578;2023-04-27T00:08:26;95878.63;;;8.98;57.39
58092;BME280;43896;48.178;11.578;2023-04-27T00:10:51;95901.56;;;9.14;56.82
58092;BME280;43896;48.178;11.578;2023-04-27T00:13:16;95851.88;;;8.67;56.27
58092;BME280;43896;48.178;11.578;2023-04-27T00:15:42;95880.44;;;8.98;56.15
58092;BME280;43896;48.178;11.578;2023-04-27T00:18:09;95889.69;;;9.20;56.17
58092;BME280;43896;48.178;11.578;2023-04-27T00:20:34;95897.63;;;9.28;56.19
58092;BME280;43896;48.178;11.578;2023-04-27T00:23:00;95879.56;;;9.25;56.87
58092;BME280;43896;48.178;11.578;2023-04-27T00:25:25;95888.94;;;9.28;56.90
58092;BME280;43896;48.178;11.578;2023-04-27T00:27:50;95868.16;;;9.16;56.65
58092;BME280;43896;48.178;11.578;2023-04-27T00:30:16;95870.47;;;9.19;56.18
58092;BME280;43896;48.178;11.578;2023-04-27T00:32:41;95868.47;;;9.13;56.70
58092;BME280;43896;48.178;11.578;2023-04-27T00:35:07;95860.59;;;9.13;57.62
58092;BME280;43896;48.178;11.578;2023-04-27T00:37:32;95888.78;;;9.29;57.17
58092;BME280;43896;48.178;11.578;2023-04-27T00:39:57;95866.50;;;9.15;58.29
58092;BME280;43896;48.178;11.578;2023-04-27T00:42:23;95880.38;;;9.26;58.40
58092;BME280;43896;48.178;11.578;2023-04-27T00:44:49;95862.91;;;9.16;58.65
58092;BME280;43896;48.178;11.578;2023-04-27T00:47:14;95855.19;;;9.15;57.13
58092;BME280;43896;48.178;11.578;2023-04-27T00:49:41;95883.75;;;9.36;57.06
58092;BME280;43896;48.178;11.578;2023-04-27T00:52:06;95889.81;;;9.36;57.46
58092;BME280;43896;48.178;11.578;2023-04-27T00:54:32;95885.94;;;9.41;57.25
58092;BME280;43896;48.178;11.578;2023-04-27T00:56:57;95891.06;;;9.42;56.83
58092;BME280;43896;48.178;11.578;2023-04-27T00:59:23;95885.63;;;9.44;57.41
58092;BME280;43896;48.178;11.578;2023-04-27T01:01:49;95879.19;;;9.38;57.17
58092;BME280;43896;48.178;11.578;2023-04-27T01:04:15;95866.69;;;9.32;57.32
58092;BME280;43896;48.178;11.578;2023-04-27T01:06:43;95891.44;;;9.47;57.74
58092;BME280;43896;48.178;11.578;2023-04-27T01:09:09;95861.72;;;9.29;57.20
58092;BME280;43896;48.178;11.578;2023-04-27T01:11:35;95886.47;;;9.44;57.84
58092;BME280;43896;48.178;11.578;2023-04-27T01:14:05;95828.97;;;8.69;57.89
58092;BME280;43896;48.178;11.578;2023-04-27T01:16:31;95835.34;;;8.85;57.64
58092;BME280;43896;48.178;11.578;2023-04-27T01:18:57;95887.13;;;9.28;57.59
58092;BME280;43896;48.178;11.578;2023-04-27T01:21:23;95882.88;;;9.27;57.46
58092;BME280;43896;48.178;11.578;2023-04-27T01:23:48;95852.09;;;9.01;58.02
58092;BME280;43896;48.178;11.578;2023-04-27T01:26:14;95884.13;;;9.23;58.54
58092;BME280;43896;48.178;11.578;2023-04-27T01:28:41;95860.63;;;9.04;58.44
58092;BME280;43896;48.178;11.578;2023-04-27T01:31:06;95870.69;;;9.08;58.14
58092;BME280;43896;48.178;11.578;2023-04-27T01:33:31;95887.53;;;9.06;58.68
58092;BME280;43896;48.178;11.578;2023-04-27T01:35:57;95863.94;;;8.60;59.81
58092;BME280;43896;48.178;11.578;2023-04-27T01:38:22;95883.75;;;8.90;60.19
58092;BME280;43896;48.178;11.578;2023-04-27T01:40:48;95878.63;;;8.98;57.83
58092;BME280;43896;48.178;11.578;2023-04-27T01:43:14;95866.28;;;9.09;58.19
58092;BME280;43896;48.178;11.578;2023-04-27T01:45:39;95889.13;;;8.71;59.51
58092;BME280;43896;48.178;11.578;2023-04-27T01:48:04;95847.78;;;8.07;59.85
58092;BME280;43896;48.178;11.578;2023-04-27T01:50:30;95877.06;;;8.40;60.31
58092;BME280;43896;48.178;11.578;2023-04-27T01:52:55;95891.56;;;8.82;59.24
58092;BME280;43896;48.178;11.578;2023-04-27T01:55:21;95873.63;;;8.40;59.13
58092;BME280;43896;48.178;11.578;2023-04-27T01:57:46;95904.56;;;8.74;58.39
58092;BME280;43896;48.178;11.578;2023-04-27T02:00:12;95907.75;;;8.95;59.07
58092;BME280;43896;48.178;11.578;2023-04-27T02:02:37;95902.03;;;9.10;58.68
58092;BME280;43896;48.178;11.578;2023-04-27T02:05:03;95910.91;;;8.71;59.86
58092;BME280;43896;48.178;11.578;2023-04-27T02:07:28;95898.22;;;8.19;62.45
58092;BME280;43896;48.178;11.578;2023-04-27T02:09:54;95873.09;;;8.26;61.66
58092;BME280;43896;48.178;11.578;2023-04-27T02:12:19;95868.34;;;8.12;62.49
58092;BME280;43896;48.178;11.578;2023-04-27T02:14:44;95888.69;;;8.48;62.75
58092;BME280;43896;48.178;11.578;2023-04-27T02:17:10;95901.44;;;7.94;63.60
58092;BME280;43896;48.178;11.578;2023-04-27T02:19:35;95903.69;;;7.69;65.08
58092;BME280;43896;48.178;11.578;2023-04-27T02:22:00;95878.72;;;7.84;64.11
58092;BME280;43896;48.178;11.578;2023-04-27T02:24:25;95874.63;;;8.29;61.73
58092;BME280;43896;48.178;11.578;2023-04-27T02:26:51;95910.38;;;8.68;61.76
58092;BME280;43896;48.178;11.578;2023-04-27T02:29:16;95862.38;;;8.20;62.00
58092;BME280;43896;48.178;11.578;2023-04-27T02:31:42;95909.72;;;8.56;62.18
58092;BME280;43896;48.178;11.578;2023-04-27T02:34:07;95912.81;;;8.32;62.38
58092;BME280;43896;48.178;11.578;2023-04-27T02:36:33;95912.69;;;8.43;62.24
58092;BME280;43896;48.178;11.578;2023-04-27T02:38:58;95914.72;;;8.49;62.00
58092;BME280;43896;48.178;11.578;2023-04-27T02:41:23;95848.66;;;8.08;62.01
58092;BME280;43896;48.178;11.578;2023-04-27T02:43:51;95893.78;;;8.30;62.14
58092;BME280;43896;48.178;11.578;2023-04-27T02:46:17;95900.69;;;8.31;62.36
58092;BME280;43896;48.178;11.578;2023-04-27T02:48:42;95894.78;;;8.29;62.31
58092;BME280;43896;48.178;11.578;2023-04-27T02:51:10;95913.88;;;8.39;62.33
58092;BME280;43896;48.178;11.578;2023-04-27T02:53:35;95912.13;;;8.30;62.19
58092;BME280;43896;48.178;11.578;2023-04-27T02:56:00;95892.19;;;8.09;62.52
58092;BME280;43896;48.178;11.578;2023-04-27T02:58:26;95892.66;;;7.56;64.66
58092;BME280;43896;48.178;11.578;2023-04-27T03:00:54;95890.03;;;7.56;64.18
58092;BME280;43896;48.178;11.578;2023-04-27T03:03:21;95902.88;;;7.39;65.17
58092;BME280;43896;48.178;11.578;2023-04-27T03:05:46;95899.81;;;7.73;64.21
58092;BME280;43896;48.178;11.578;2023-04-27T03:08:11;95908.75;;;7.90;63.95
58092;BME280;43896;48.178;11.578;2023-04-27T03:10:36;95896.94;;;7.86;63.92
58092;BME280;43896;48.178;11.578;2023-04-27T03:13:02;95910.00;;;7.27;66.13
58092;BME280;43896;48.178;11.578;2023-04-27T03:15:27;95904.50;;;7.69;64.19
58092;BME280;43896;48.178;11.578;2023-04-27T03:17:52;95918.41;;;7.89;63.16
58092;BME280;43896;48.178;11.578;2023-04-27T03:20:18;95919.09;;;7.92;63.04
58092;BME280;43896;48.178;11.578;2023-04-27T03:22:43;95901.88;;;7.60;64.31
58092;BME280;43896;48.178;11.578;2023-04-27T03:25:10;95920.34;;;7.87;63.31
58092;BME280;43896;48.178;11.578;2023-04-27T03:27:35;95910.84;;;7.86;63.27
58092;BME280;43896;48.178;11.578;2023-04-27T03:30:01;95930.66;;;7.99;63.83
58092;BME280;43896;48.178;11.578;2023-04-27T03:32:27;95904.22;;;7.82;63.29
58092;BME280;43896;48.178;11.578;2023-04-27T03:34:52;95933.28;;;7.99;62.79
58092;BME280;43896;48.178;11.578;2023-04-27T03:37:18;95916.63;;;7.80;63.34
58092;BME280;43896;48.178;11.578;2023-04-27T03:39:43;95917.75;;;7.58;64.74
58092;BME280;43896;48.178;11.578;2023-04-27T03:42:09;95924.91;;;7.76;65.14
58092;BME280;43896;48.178;11.578;2023-04-27T03:44:34;95917.47;;;7.81;64.60
58092;BME280;43896;48.178;11.578;2023-04-27T03:47:00;95919.66;;;7.85;63.97
58092;BME280;43896;48.178;11.578;2023-04-27T03:49:26;95934.66;;;8.03;64.34
58092;BME280;43896;48.178;11.578;2023-04-27T03:51:51;95936.19;;;7.57;65.37
58092;BME280;43896;48.178;11.578;2023-04-27T03:54:17;95934.53;;;7.75;64.98
58092;BME280;43896;48.178;11.578;2023-04-27T03:56:42;95910.00;;;7.76;64.28
58092;BME280;43896;48.178;11.578;2023-04-27T03:59:10;95935.50;;;7.94;64.70
58092;BME280;43896;48.178;11.578;2023-04-27T04:01:36;95943.34;;;7.94;64.92
58092;BME280;43896;48.178;11.578;2023-04-27T04:04:01;95939.78;;;7.95;65.16
58092;BME280;43896;48.178;11.578;2023-04-27T04:06:27;95932.06;;;7.83;65.34
58092;BME280;43896;48.178;11.578;2023-04-27T04:08:53;95961.69;;;7.64;66.31
58092;BME280;43896;48.178;11.578;2023-04-27T04:11:18;95939.78;;;7.65;66.51
58092;BME280;43896;48.178;11.578;2023-04-27T04:13:44;95970.09;;;7.97;65.90
58092;BME280;43896;48.178;11.578;2023-04-27T04:16:09;95931.38;;;7.91;65.34
58092;BME280;43896;48.178;11.578;2023-04-27T04:18:35;95937.84;;;7.97;64.42
58092;BME280;43896;48.178;11.578;2023-04-27T04:21:01;95930.78;;;7.97;65.16
58092;BME280;43896;48.178;11.578;2023-04-27T04:23:27;95933.97;;;8.01;65.47
58092;BME280;43896;48.178;11.578;2023-04-27T04:25:55;95940.72;;;8.03;66.24
58092;BME280;43896;48.178;11.578;2023-04-27T04:28:21;95982.75;;;8.31;65.53
58092;BME280;43896;48.178;11.578;2023-04-27T04:30:47;95966.06;;;8.32;64.29
58092;BME280;43896;48.178;11.578;2023-04-27T04:33:13;95971.97;;;8.34;64.94
58092;BME280;43896;48.178;11.578;2023-04-27T04:35:41;95945.25;;;8.21;65.11
58092;BME280;43896;48.178;11.578;2023-04-27T04:38:08;95983.03;;;8.48;65.13
58092;BME280;43896;48.178;11.578;2023-04-27T04:40:34;95973.34;;;8.38;64.08
58092;BME280;43896;48.178;11.578;2023-04-27T04:43:00;95971.16;;;8.43;64.00
58092;BME280;43896;48.178;11.578;2023-04-27T04:45:28;95914.81;;;8.10;63.97
58092;BME280;43896;48.178;11.578;2023-04-27T04:47:53;95908.97;;;8.16;65.00
58092;BME280;43896;48.178;11.578;2023-04-27T04:50:19;95938.88;;;8.43;64.84
58092;BME280;43896;48.178;11.578;2023-04-27T04:52:45;95940.94;;;8.49;63.63
58092;BME280;43896;48.178;11.578;2023-04-27T04:55:10;95980.59;;;8.74;63.80
58092;BME280;43896;48.178;11.578;2023-04-27T04:57:36;95974.69;;;8.72;62.67
58092;BME280;43896;48.178;11.578;2023-04-27T05:00:01;95954.00;;;8.69;63.25
58092;BME280;43896;48.178;11.578;2023-04-27T05:02:28;95971.19;;;8.81;63.20
58092;BME280;43896;48.178;11.578;2023-04-27T05:04:53;95922.84;;;8.56;64.02
58092;BME280;43896;48.178;11.578;2023-04-27T05:07:20;95894.34;;;8.43;62.67
58092;BME280;43896;48.178;11.578;2023-04-27T05:09:46;95904.41;;;8.48;61.28
58092;BME280;43896;48.178;11.578;2023-04-27T05:12:11;95983.09;;;8.66;61.24
58092;BME280;43896;48.178;11.578;2023-04-27T05:14:37;96001.91;;;8.98;61.69
58092;BME280;43896;48.178;11.578;2023-04-27T05:17:02;95927.91;;;8.67;60.70
58092;BME280;43896;48.178;11.578;2023-04-27T05:19:28;95925.69;;;8.72;61.00
58092;BME280;43896;48.178;11.578;2023-04-27T05:21:55;95937.06;;;8.91;59.34
58092;BME280;43896;48.178;11.578;2023-04-27T05:24:20;95998.44;;;9.35;60.35
58092;BME280;43896;48.178;11.578;2023-04-27T05:26:46;96002.41;;;9.39;60.42
58092;BME280;43896;48.178;11.578;2023-04-27T05:29:11;95966.84;;;9.27;60.32
58092;BME280;43896;48.178;11.578;2023-04-27T05:31:36;95950.69;;;8.67;60.07
58092;BME280;43896;48.178;11.578;2023-04-27T05:34:02;95923.66;;;7.60;59.74
58092;BME280;43896;48.178;11.578;2023-04-27T05:36:32;95978.22;;;7.75;59.69
58092;BME280;43896;48.178;11.578;2023-04-27T05:38:58;95917.28;;;7.33;58.91
58092;BME280;43896;48.178;11.578;2023-04-27T05:41:26;95937.50;;;7.22;59.18
58092;BME280;43896;48.178;11.578;2023-04-27T05:43:52;95913.56;;;7.07;59.10
58092;BME280;43896;48.178;11.578;2023-04-27T05:46:17;95990.47;;;8.23;58.82
58092;BME280;43896;48.178;11.578;2023-04-27T05:48:43;95999.88;;;8.92;56.23
58092;BME280;43896;48.178;11.578;2023-04-27T05:51:10;95964.84;;;8.07;54.96
58092;BME280;43896;48.178;11.578;2023-04-27T05:53:35;95980.34;;;8.67;55.19
58092;BME280;43896;48.178;11.578;2023-04-27T05:56:00;96011.69;;;8.20;57.28
58092;BME280;43896;48.178;11.578;2023-04-27T05:58:28;95962.75;;;8.50;56.23
58092;BME280;43896;48.178;11.578;2023-04-27T06:00:53;95943.09;;;7.77;59.66
58092;BME280;43896;48.178;11.578;2023-04-27T06:03:19;96021.63;;;8.26;59.14
58092;BME280;43896;48.178;11.578;2023-04-27T06:05:45;96022.25;;;9.14;56.44
58092;BME280;43896;48.178;11.578;2023-04-27T06:08:11;96016.94;;;8.59;58.12
58092;BME280;43896;48.178;11.578;2023-04-27T06:10:43;96026.88;;;8.65;58.15
58092;BME280;43896;48.178;11.578;2023-04-27T06:13:08;96017.34;;;8.35;58.92
58092;BME280;43896;48.178;11.578;2023-04-27T06:15:33;96014.47;;;8.48;59.14
58092;BME280;43896;48.178;11.578;2023-04-27T06:17:58;95988.94;;;8.30;60.17
58092;BME280;43896;48.178;11.578;2023-04-27T06:20:24;95997.34;;;9.00;57.99
58092;BME280;43896;48.178;11.578;2023-04-27T06:22:49;96017.69;;;9.72;56.47
58092;BME280;43896;48.178;11.578;2023-04-27T06:25:14;96020.94;;;9.00;57.71
58092;BME280;43896;48.178;11.578;2023-04-27T06:27:40;96006.63;;;8.85;58.98
58092;BME280;43896;48.178;11.578;2023-04-27T06:30:06;96030.97;;;8.68;59.14
58092;BME280;43896;48.178;11.578;2023-04-27T06:32:31;96025.25;;;9.29;58.46
58092;BME280;43896;48.178;11.578;2023-04-27T06:34:57;96005.66;;;9.69;56.62
58092;BME280;43896;48.178;11.578;2023-04-27T06:37:22;96026.44;;;10.26;55.52
58092;BME280;43896;48.178;11.578;2023-04-27T06:39:47;96017.72;;;10.44;54.44
58092;BME280;43896;48.178;11.578;2023-04-27T06:42:12;96010.94;;;10.41;54.48
58092;BME280;43896;48.178;11.578;2023-04-27T06:44:38;96027.03;;;10.02;56.82
58092;BME280;43896;48.178;11.578;2023-04-27T06:47:04;96034.72;;;9.40;58.54
58092;BME280;43896;48.178;11.578;2023-04-27T06:49:29;96011.97;;;9.03;59.79
58092;BME280;43896;48.178;11.578;2023-04-27T06:51:55;95996.75;;;8.79;60.54
58092;BME280;43896;48.178;11.578;2023-04-27T06:54:20;95992.84;;;8.83;60.28
58092;BME280;43896;48.178;11.578;2023-04-27T06:56:55;95975.66;;;8.98;60.55
58092;BME280;43896;48.178;11.578;2023-04-27T06:59:20;95923.38;;;8.59;60.05
58092;BME280;43896;48.178;11.578;2023-04-27T07:01:46;96037.19;;;9.14;60.01
58092;BME280;43896;48.178;11.578;2023-04-27T07:04:11;95963.44;;;9.17;59.02
58092;BME280;43896;48.178;11.578;2023-04-27T07:06:36;95957.00;;;9.11;58.83
58092;BME280;43896;48.178;11.578;2023-04-27T07:09:02;96027.00;;;9.66;58.46
58092;BME280;43896;48.178;11.578;2023-04-27T07:11:30;96001.78;;;9.28;59.63
58092;BME280;43896;48.178;11.578;2023-04-27T07:13:55;95983.16;;;9.21;59.83
58092;BME280;43896;48.178;11.578;2023-04-27T07:16:20;96033.13;;;9.29;58.70
58092;BME280;43896;48.178;11.578;2023-04-27T07:18:46;96026.53;;;9.25;59.23
58092;BME280;43896;48.178;11.578;2023-04-27T07:21:11;95995.06;;;9.15;59.62
58092;BME280;43896;48.178;11.578;2023-04-27T07:23:38;96035.38;;;10.34;56.86
58092;BME280;43896;48.178;11.578;2023-04-27T07:26:04;96020.19;;;9.91;57.45
58092;BME280;43896;48.178;11.578;2023-04-27T07:28:29;96033.25;;;10.19;56.91
58092;BME280;43896;48.178;11.578;2023-04-27T07:30:55;96023.09;;;9.88;56.34
58092;BME280;43896;48.178;11.578;2023-04-27T07:33:22;96036.94;;;9.90;55.42
58092;BME280;43896;48.178;11.578;2023-04-27T07:35:47;95968.78;;;9.89;55.25
58092;BME280;43896;48.178;11.578;2023-04-27T07:38:14;96031.22;;;9.95;56.31
58092;BME280;43896;48.178;11.578;2023-04-27T07:40:41;96042.03;;;9.92;55.52
58092;BME280;43896;48.178;11.578;2023-04-27T07:43:07;96028.28;;;9.98;55.73
58092;BME280;43896;48.178;11.578;2023-04-27T07:45:33;96032.50;;;10.63;55.07
58092;BME280;43896;48.178;11.578;2023-04-27T07:48:03;96023.34;;;10.49;55.04
58092;BME280;43896;48.178;11.578;2023-04-27T07:50:29;96034.88;;;11.35;52.93
58092;BME280;43896;48.178;11.578;2023-04-27T07:52:55;96029.47;;;11.10;53.08
58092;BME280;43896;48.178;11.578;2023-04-27T07:55:21;96037.06;;;11.13;52.56
58092;BME280;43896;48.178;11.578;2023-04-27T07:57:48;96032.47;;;11.58;51.70
58092;BME280;43896;48.178;11.578;2023-04-27T08:00:14;96031.91;;;11.38;52.63
58092;BME280;43896;48.178;11.578;2023-04-27T08:02:40;96033.88;;;11.01;52.73
58092;BME280;43896;48.178;11.578;2023-04-27T08:05:05;96029.72;;;10.91;52.91
58092;BME280;43896;48.178;11.578;2023-04-27T08:07:32;96032.06;;;10.76;52.16
58092;BME280;43896;48.178;11.578;2023-04-27T08:09:58;96048.28;;;10.63;53.78
58092;BME280;43896;48.178;11.578;2023-04-27T08:12:23;96049.06;;;10.81;53.80
58092;BME280;43896;48.178;11.578;2023-04-27T08:14:48;96036.44;;;10.93;53.49
58092;BME280;43896;48.178;11.578;2023-04-27T08:17:14;96042.53;;;11.54;53.13
58092;BME280;43896;48.178;11.578;2023-04-27T08:19:39;96029.63;;;11.35;51.84
58092;BME280;43896;48.178;11.578;2023-04-27T08:22:05;96041.22;;;11.16;51.98
58092;BME280;43896;48.178;11.578;2023-04-27T08:24:30;96037.50;;;11.00;52.70
58092;BME280;43896;48.178;11.578;2023-04-27T08:26:55;96034.06;;;11.08;53.26
58092;BME280;43896;48.178;11.578;2023-04-27T08:29:21;96043.63;;;11.43;51.82
58092;BME280;43896;48.178;11.578;2023-04-27T08:31:46;96048.75;;;11.96;51.78
58092;BME280;43896;48.178;11.578;2023-04-27T08:34:12;96035.78;;;11.60;51.76
58092;BME280;43896;48.178;11.578;2023-04-27T08:36:37;96057.75;;;11.77;52.43
58092;BME280;43896;48.178;11.578;2023-04-27T08:39:02;96041.91;;;11.69;53.71
58092;BME280;43896;48.178;11.578;2023-04-27T08:41:31;96041.13;;;11.76;53.11
58092;BME280;43896;48.178;11.578;2023-04-27T08:43:57;96054.91;;;12.13;51.94
58092;BME280;43896;48.178;11.578;2023-04-27T08:46:24;96061.16;;;12.20;51.07
58092;BME280;43896;48.178;11.578;2023-04-27T08:48:52;96043.47;;;11.45;51.59
58092;BME280;43896;48.178;11.578;2023-04-27T08:51:18;96052.22;;;11.96;51.39
58092;BME280;43896;48.178;11.578;2023-04-27T08:53:49;96041.41;;;12.24;51.45
58092;BME280;43896;48.178;11.578;2023-04-27T08:56:15;96028.22;;;12.24;50.76
58092;BME280;43896;48.178;11.578;2023-04-27T08:58:40;96044.19;;;12.14;51.71
58092;BME280;43896;48.178;11.578;2023-04-27T09:01:06;96038.75;;;12.08;51.84
58092;BME280;43896;48.178;11.578;2023-04-27T09:03:32;96040.75;;;12.47;51.35
58092;BME280;43896;48.178;11.578;2023-04-27T09:05:59;96044.03;;;12.73;50.99
58092;BME280;43896;48.178;11.578;2023-04-27T09:08:25;96003.66;;;12.15;51.40
58092;BME280;43896;48.178;11.578;2023-04-27T09:10:51;96024.75;;;12.32;51.39
58092;BME280;43896;48.178;11.578;2023-04-27T09:13:17;95984.53;;;11.97;51.05
58092;BME280;43896;48.178;11.578;2023-04-27T09:15:50;96002.66;;;12.66;49.66
58092;BME280;43896;48.178;11.578;2023-04-27T09:18:18;96024.31;;;13.65;47.26
58092;BME280;43896;48.178;11.578;2023-04-27T09:20:45;96032.94;;;13.67;47.32
58092;BME280;43896;48.178;11.578;2023-04-27T09:23:24;95991.78;;;13.17;48.39
58092;BME280;43896;48.178;11.578;2023-04-27T09:25:50;95979.72;;;12.83;49.64
58092;BME280;43896;48.178;11.578;2023-04-27T09:28:16;95970.31;;;12.72;50.08
58092;BME280;43896;48.178;11.578;2023-04-27T09:30:53;95972.50;;;12.52;50.55
58092;BME280;43896;48.178;11.578;2023-04-27T09:35:48;96026.75;;;14.52;48.74
58092;BME280;43896;48.178;11.578;2023-04-27T09:38:16;95971.88;;;14.08;47.46
58092;BME280;43896;48.178;11.578;2023-04-27T09:40:42;95974.84;;;14.28;46.71
58092;BME280;43896;48.178;11.578;2023-04-27T09:43:07;95990.19;;;14.33;47.60
58092;BME280;43896;48.178;11.578;2023-04-27T09:45:37;95974.16;;;14.11;47.84
58092;BME280;43896;48.178;11.578;2023-04-27T09:48:04;95999.59;;;14.35;46.65
58092;BME280;43896;48.178;11.578;2023-04-27T09:50:32;95990.63;;;14.82;46.53
58092;BME280;43896;48.178;11.578;2023-04-27T09:52:58;95971.59;;;14.64;45.63
58092;BME280;43896;48.178;11.578;2023-04-27T09:55:35;96002.97;;;15.20;45.24
58092;BME280;43896;48.178;11.578;2023-04-27T10:01:09;95902.19;;;13.78;44.97
58092;BME280;43896;48.178;11.578;2023-04-27T10:04:01;96000.56;;;16.06;41.41
58092;BME280;43896;48.178;11.578;2023-04-27T10:06:50;95999.13;;;16.75;41.48
58092;BME280;43896;48.178;11.578;2023-04-27T10:09:20;95938.38;;;14.91;42.91
58092;BME280;43896;48.178;11.578;2023-04-27T10:11:48;95999.63;;;14.50;46.10
58092;BME280;43896;48.178;11.578;2023-04-27T10:14:18;95994.53;;;15.31;42.18
58092;BME280;43896;48.178;11.578;2023-04-27T10:16:52;95942.81;;;13.54;46.25
58092;BME280;43896;48.178;11.578;2023-04-27T10:19:19;95953.38;;;14.08;46.23
58092;BME280;43896;48.178;11.578;2023-04-27T10:21:56;95967.06;;;14.12;45.61
58092;BME280;43896;48.178;11.578;2023-04-27T10:27:00;95926.75;;;14.24;44.29
58092;BME280;43896;48.178;11.578;2023-04-27T10:29:34;95907.28;;;14.55;44.77
58092;BME280;43896;48.178;11.578;2023-04-27T10:32:06;95967.50;;;14.91;43.13
58092;BME280;43896;48.178;11.578;2023-04-27T10:34:33;95936.81;;;14.97;43.34
58092;BME280;43896;48.178;11.578;2023-04-27T10:37:09;95946.03;;;15.31;40.44
58092;BME280;43896;48.178;11.578;2023-04-27T10:39:40;95923.59;;;16.28;39.94
58092;BME280;43896;48.178;11.578;2023-04-27T10:42:06;95925.34;;;15.56;41.99
58092;BME280;43896;48.178;11.578;2023-04-27T10:44:33;95910.66;;;15.38;42.96
58092;BME280;43896;48.178;11.578;2023-04-27T10:47:01;95945.25;;;15.52;42.87
58092;BME280;43896;48.178;11.578;2023-04-27T10:49:36;95910.31;;;14.14;43.39
58092;BME280;43896;48.178;11.578;2023-04-27T10:52:04;95919.47;;;14.65;42.55
58092;BME280;43896;48.178;11.578;2023-04-27T10:54:30;95972.66;;;15.59;41.91
58092;BME280;43896;48.178;11.578;2023-04-27T10:57:07;95976.91;;;16.33;40.86
58092;BME280;43896;48.178;11.578;2023-04-27T10:59:34;95903.09;;;15.93;38.67
58092;BME280;43896;48.178;11.578;2023-04-27T11:02:01;95936.56;;;16.66;38.75
58092;BME280;43896;48.178;11.578;2023-04-27T11:04:39;95892.44;;;15.87;39.66
58092;BME280;43896;48.178;11.578;2023-04-27T11:07:08;95874.53;;;16.80;38.23
58092;BME280;43896;48.178;11.578;2023-04-27T11:09:38;95918.81;;;17.50;37.08
58092;BME280;43896;48.178;11.578;2023-04-27T11:12:11;95877.91;;;17.51;36.15
58092;BME280;43896;48.178;11.578;2023-04-27T11:14:37;95936.06;;;17.60;36.75
58092;BME280;43896;48.178;11.578;2023-04-27T11:17:03;95891.91;;;16.76;38.80
58092;BME280;43896;48.178;11.578;2023-04-27T11:19:29;95955.13;;;16.38;39.81
58092;BME280;43896;48.178;11.578;2023-04-27T11:22:05;95943.94;;;17.40;38.84
58092;BME280;43896;48.178;11.578;2023-04-27T11:24:31;95913.88;;;17.33;36.41
58092;BME280;43896;48.178;11.578;2023-04-27T11:26:57;95918.34;;;17.33;36.25
58092;BME280;43896;48.178;11.578;2023-04-27T11:29:23;95899.00;;;16.76;35.61
58092;BME280;43896;48.178;11.578;2023-04-27T11:31:49;95971.09;;;16.73;37.06
58092;BME280;43896;48.178;11.578;2023-04-27T11:34:21;95889.06;;;16.49;37.75
58092;BME280;43896;48.178;11.578;2023-04-27T11:39:26;95916.69;;;15.32;42.58
58092;BME280;43896;48.178;11.578;2023-04-27T11:41:52;95922.31;;;14.78;42.67
58092;BME280;43896;48.178;11.578;2023-04-27T11:44:17;95955.66;;;15.68;43.35
58092;BME280;43896;48.178;11.578;2023-04-27T11:46:43;95893.00;;;14.94;41.42
58092;BME280;43896;48.178;11.578;2023-04-27T11:49:09;95933.63;;;15.16;41.11
58092;BME280;43896;48.178;11.578;2023-04-27T11:51:35;95950.66;;;15.44;42.10
58092;BME280;43896;48.178;11.578;2023-04-27T11:54:03;95905.88;;;15.85;39.73
58092;BME280;43896;48.178;11.578;2023-04-27T11:56:39;95905.19;;;15.98;39.15
58092;BME280;43896;48.178;11.578;2023-04-27T11:59:16;95958.38;;;15.24;41.50
58092;BME280;43896;48.178;11.578;2023-04-27T12:01:41;95938.47;;;15.13;41.48
58092;BME280;43896;48.178;11.578;2023-04-27T12:04:07;95923.00;;;15.31;41.24
58092;BME280;43896;48.178;11.578;2023-04-27T12:06:32;95927.03;;;16.00;41.60
58092;BME280;43896;48.178;11.578;2023-04-27T12:08:57;95925.47;;;15.69;41.08
58092;BME280;43896;48.178;11.578;2023-04-27T12:11:25;95947.53;;;15.55;41.76
58092;BME280;43896;48.178;11.578;2023-04-27T12:13:52;95921.13;;;15.47;41.03
58092;BME280;43896;48.178;11.578;2023-04-27T12:16:17;95931.22;;;16.09;41.14
58092;BME280;43896;48.178;11.578;2023-04-27T12:18:42;95896.75;;;15.73;40.44
58092;BME280;43896;48.178;11.578;2023-04-27T12:21:08;95944.31;;;16.39;38.73
58092;BME280;43896;48.178;11.578;2023-04-27T12:23:34;95920.63;;;15.73;39.52
58092;BME280;43896;48.178;11.578;2023-04-27T12:26:00;95917.19;;;15.94;38.38
58092;BME280;43896;48.178;11.578;2023-04-27T12:28:25;95937.78;;;16.92;37.45
58092;BME280;43896;48.178;11.578;2023-04-27T12:30:51;95940.16;;;16.30;39.30
58092;BME280;43896;48.178;11.578;2023-04-27T12:33:16;95946.13;;;17.23;37.80
58092;BME280;43896;48.178;11.578;2023-04-27T12:35:42;95969.16;;;18.13;36.21
58092;BME280;43896;48.178;11.578;2023-04-27T12:38:07;95962.81;;;18.34;35.85
58092;BME280;43896;48.178;11.578;2023-04-27T12:40:33;95911.31;;;17.73;35.65
58092;BME280;43896;48.178;11.578;2023-04-27T12:42:59;95900.19;;;17.36;36.28
58092;BME280;43896;48.178;11.578;2023-04-27T12:45:25;95922.41;;;16.87;38.69
58092;BME280;43896;48.178;11.578;2023-04-27T12:47:51;95937.22;;;18.26;37.10
58092;BME280;43896;48.178;11.578;2023-04-27T12:50:19;95897.81;;;17.68;36.58
58092;BME280;43896;48.178;11.578;2023-04-27T12:52:44;95922.25;;;17.92;36.25
58092;BME280;43896;48.178;11.578;2023-04-27T12:55:10;95903.44;;;18.27;34.91
58092;BME280;43896;48.178;11.578;2023-04-27T12:57:36;95912.44;;;18.39;34.38
58092;BME280;43896;48.178;11.578;2023-04-27T13:00:01;95937.44;;;18.45;35.11
58092;BME280;43896;48.178;11.578;2023-04-27T13:02:27;95951.75;;;18.30;36.40